Darstellungsparameter: Aktuell verwendete Einstellungen:
Skalierung der Graphiken ... ?
xyx+y,   Skalierungsfaktor:      Skalierung: Modus: x, Faktor: 1
Darstellungszeitraum ... ?
Vom - - bis: - -   Zeitraum: 17.02.2019 - 18.02.2019
Min/Max/Avg-Anzeige ... ?
Zeige MMA aktuell
Zeige MMA Monat
Zeige MMA alles
Zeige --A aktuell
Zeige --A Monat
Zeige --A alles
Keine MMA-Anzeige
MMA:
Average (ber die Originaldaten)
MMA-Basis: 17.02.2019 - 18.02.2019
Quicknavigation für Darstellung... ?
Tage:      1T, 2T, 3T, 5T -1T -2T -3T -5T +1T +2T +3T +5T
Wochen: 1W, 2W, 3W -1W -2W -3W +1W +2W +3W
Monate: 1M, 3M, 6M -1M -3M -6M +1M +3M +6M
Jahre:    1J, 3J, 5J, 10J -1J -3J -5J -10J +1J +3J +5J +10J
Nutze für die Darstellung ... ?
Originaldaten oder Mittelwerte auf ...
Stundenbasis Tagesbasis Wochenbasis
Monatsbasis Jahresbasis      Datenbasis: Original-Daten
Darstellen als:
Statistik (Auto) Statistik J:M      Darstellung:
Zur Graphik,    zurück zur Übersicht aller Sensoren.
 
Tabellarische Datenbersicht: ?
 
Sensor: Nr:Datum:Temp:Feuchte:Taupunkt:
Aussen-T/F 1 17-02-2019 00:00:00 1.9 C 94 % 1.04 C
2 17-02-2019 00:05:00 1.9 C 94 % 1.04 C
3 17-02-2019 00:10:00 1.8 C 94 % 0.94 C
4 17-02-2019 00:15:00 1.7 C 94 % 0.84 C
5 17-02-2019 00:20:00 1.6 C 94 % 0.74 C
6 17-02-2019 00:25:00 1.5 C 94 % 0.64 C
7 17-02-2019 00:30:00 1.6 C 94 % 0.74 C
8 17-02-2019 00:35:00 1.5 C 94 % 0.64 C
9 17-02-2019 00:40:00 1.3 C 94 % 0.44 C
10 17-02-2019 00:45:00 1.3 C 94 % 0.44 C
11 17-02-2019 00:50:00 1.3 C 94 % 0.44 C
12 17-02-2019 00:55:00 1.2 C 94 % 0.34 C
13 17-02-2019 01:00:00 1.2 C 94 % 0.34 C
14 17-02-2019 01:05:00 1.2 C 94 % 0.34 C
15 17-02-2019 01:10:00 1.2 C 94 % 0.34 C
16 17-02-2019 01:15:00 0.9 C 94 % 0.05 C
17 17-02-2019 01:20:00 0.8 C 94 % -0.05 C
18 17-02-2019 01:25:00 0.8 C 94 % -0.05 C
19 17-02-2019 01:30:00 0.8 C 94 % -0.05 C
20 17-02-2019 01:35:00 0.7 C 94 % -0.15 C
21 17-02-2019 01:40:00 0.6 C 95 % -0.11 C
22 17-02-2019 01:45:00 0.6 C 95 % -0.11 C
23 17-02-2019 01:50:00 0.8 C 95 % 0.09 C
24 17-02-2019 01:55:00 0.8 C 95 % 0.09 C
25 17-02-2019 02:00:00 0.7 C 95 % -0.01 C
Sensor: Nr:Datum:Temp:Feuchte:Taupunkt:
Aussen-T/F 26 17-02-2019 02:05:00 0.7 C 95 % -0.01 C
27 17-02-2019 02:10:00 0.6 C 95 % -0.11 C
28 17-02-2019 02:15:00 0.4 C 95 % -0.31 C
29 17-02-2019 02:20:00 0.4 C 95 % -0.31 C
30 17-02-2019 02:25:00 0.3 C 95 % -0.4 C
31 17-02-2019 02:30:00 0.3 C 95 % -0.4 C
32 17-02-2019 02:35:00 0.2 C 95 % -0.5 C
33 17-02-2019 02:40:00 0.2 C 95 % -0.5 C
34 17-02-2019 02:45:00 0.1 C 95 % -0.6 C
35 17-02-2019 02:50:00 0 C 95 % -0.7 C
36 17-02-2019 02:55:00 0.2 C 95 % -0.5 C
37 17-02-2019 03:00:00 0.3 C 96 % -0.26 C
38 17-02-2019 03:05:00 0.3 C 95 % -0.4 C
39 17-02-2019 03:10:00 0.2 C 95 % -0.5 C
40 17-02-2019 03:15:00 0.2 C 95 % -0.5 C
41 17-02-2019 03:20:00 0.1 C 95 % -0.6 C
42 17-02-2019 03:25:00 0 C 95 % -0.7 C
43 17-02-2019 03:30:00 -0.1 C 95 % -0.8 C
44 17-02-2019 03:35:00 -0.1 C 95 % -0.8 C
45 17-02-2019 03:40:00 0 C 95 % -0.7 C
46 17-02-2019 03:45:00 0.1 C 96 % -0.46 C
47 17-02-2019 03:50:00 0.1 C 96 % -0.46 C
48 17-02-2019 03:55:00 0 C 96 % -0.56 C
49 17-02-2019 04:00:00 -0.1 C 96 % -0.66 C
50 17-02-2019 04:05:00 -0.2 C 95 % -0.9 C
Sensor: Nr:Datum:Temp:Feuchte:Taupunkt:
Aussen-T/F 51 17-02-2019 04:10:00 -0.2 C 95 % -0.9 C
52 17-02-2019 04:15:00 -0.2 C 95 % -0.9 C
53 17-02-2019 04:20:00 -0.3 C 95 % -1 C
54 17-02-2019 04:25:00 -0.3 C 95 % -1 C
55 17-02-2019 04:30:00 -0.3 C 96 % -0.86 C
56 17-02-2019 04:35:00 -0.4 C 96 % -0.96 C
57 17-02-2019 04:40:00 -0.4 C 95 % -1.1 C
58 17-02-2019 04:45:00 -0.6 C 95 % -1.3 C
59 17-02-2019 04:50:00 -0.7 C 95 % -1.4 C
60 17-02-2019 04:55:00 -0.7 C 96 % -1.26 C
61 17-02-2019 05:00:00 -0.6 C 96 % -1.16 C
62 17-02-2019 05:05:00 -0.6 C 96 % -1.16 C
63 17-02-2019 05:10:00 -0.7 C 96 % -1.26 C
64 17-02-2019 05:15:00 -0.7 C 95 % -1.4 C
65 17-02-2019 05:20:00 -0.8 C 95 % -1.5 C
66 17-02-2019 05:25:00 -0.8 C 95 % -1.5 C
67 17-02-2019 05:30:00 -0.8 C 96 % -1.36 C
68 17-02-2019 05:35:00 -0.9 C 96 % -1.46 C
69 17-02-2019 05:40:00 -1 C 96 % -1.56 C
70 17-02-2019 05:45:00 -1.1 C 96 % -1.66 C
71 17-02-2019 05:50:00 -1.1 C 95 % -1.8 C
72 17-02-2019 05:55:00 -1.2 C 95 % -1.9 C
73 17-02-2019 06:00:00 -1.1 C 96 % -1.66 C
74 17-02-2019 06:05:00 -0.8 C 96 % -1.36 C
75 17-02-2019 06:10:00 -0.8 C 96 % -1.36 C
Sensor: Nr:Datum:Temp:Feuchte:Taupunkt:
Aussen-T/F 76 17-02-2019 06:15:00 -0.8 C 96 % -1.36 C
77 17-02-2019 06:20:00 -0.9 C 96 % -1.46 C
78 17-02-2019 06:25:00 -1.1 C 96 % -1.66 C
79 17-02-2019 06:30:00 -1.1 C 96 % -1.66 C
80 17-02-2019 06:35:00 -1.2 C 96 % -1.75 C
81 17-02-2019 06:40:00 -1.1 C 96 % -1.66 C
82 17-02-2019 06:45:00 -1 C 96 % -1.56 C
83 17-02-2019 06:50:00 -0.9 C 96 % -1.46 C
84 17-02-2019 06:55:00 -0.9 C 96 % -1.46 C
85 17-02-2019 07:00:00 -1 C 96 % -1.56 C
86 17-02-2019 07:05:00 -1.1 C 96 % -1.66 C
87 17-02-2019 07:10:00 -1.2 C 96 % -1.75 C
88 17-02-2019 07:15:00 -1.3 C 96 % -1.85 C
89 17-02-2019 07:20:00 -1.3 C 96 % -1.85 C
90 17-02-2019 07:25:00 -1.2 C 96 % -1.75 C
91 17-02-2019 07:30:00 -1.2 C 96 % -1.75 C
92 17-02-2019 07:35:00 -1.2 C 96 % -1.75 C
93 17-02-2019 07:40:00 -1.3 C 96 % -1.85 C
94 17-02-2019 07:45:00 -1.3 C 96 % -1.85 C
95 17-02-2019 07:50:00 -1.4 C 96 % -1.95 C
96 17-02-2019 07:55:00 -1.5 C 96 % -2.05 C
97 17-02-2019 08:00:00 -1.5 C 96 % -2.05 C
98 17-02-2019 08:05:00 -1.4 C 96 % -1.95 C
99 17-02-2019 08:10:00 -1.5 C 96 % -2.05 C
100 17-02-2019 08:15:00 -1.4 C 96 % -1.95 C
Sensor: Nr:Datum:Temp:Feuchte:Taupunkt:
Aussen-T/F 101 17-02-2019 08:20:00 -1.4 C 96 % -1.95 C
102 17-02-2019 08:25:00 -1.4 C 96 % -1.95 C
103 17-02-2019 08:30:00 -1.4 C 96 % -1.95 C
104 17-02-2019 08:35:00 -1.3 C 96 % -1.85 C
105 17-02-2019 08:40:00 -1.2 C 96 % -1.75 C
106 17-02-2019 08:45:00 -1.2 C 96 % -1.75 C
107 17-02-2019 08:50:00 -1.2 C 96 % -1.75 C
108 17-02-2019 08:55:00 -1.1 C 96 % -1.66 C
109 17-02-2019 09:00:00 -1 C 96 % -1.56 C
110 17-02-2019 09:05:00 -0.9 C 96 % -1.46 C
111 17-02-2019 09:10:00 -0.9 C 96 % -1.46 C
112 17-02-2019 09:15:00 -0.8 C 96 % -1.36 C
113 17-02-2019 09:20:00 -0.8 C 96 % -1.36 C
114 17-02-2019 09:25:00 -0.8 C 96 % -1.36 C
115 17-02-2019 09:30:00 -0.8 C 96 % -1.36 C
116 17-02-2019 09:35:00 -0.8 C 96 % -1.36 C
117 17-02-2019 09:40:00 -0.8 C 96 % -1.36 C
118 17-02-2019 09:45:00 -0.8 C 96 % -1.36 C
119 17-02-2019 09:50:00 -0.7 C 96 % -1.26 C
120 17-02-2019 09:55:00 -0.7 C 96 % -1.26 C
121 17-02-2019 10:00:00 -0.7 C 96 % -1.26 C
122 17-02-2019 10:05:00 -0.6 C 96 % -1.16 C
123 17-02-2019 10:10:00 -0.5 C 96 % -1.06 C
124 17-02-2019 10:15:00 -0.4 C 96 % -0.96 C
125 17-02-2019 10:20:00 -0.4 C 97 % -0.82 C
Sensor: Nr:Datum:Temp:Feuchte:Taupunkt:
Aussen-T/F 126 17-02-2019 10:25:00 -0.3 C 97 % -0.72 C
127 17-02-2019 10:30:00 -0.2 C 97 % -0.62 C
128 17-02-2019 10:35:00 -0.1 C 97 % -0.52 C
129 17-02-2019 10:40:00 0.1 C 97 % -0.32 C
130 17-02-2019 10:45:00 0.2 C 97 % -0.22 C
131 17-02-2019 10:50:00 0.3 C 97 % -0.12 C
132 17-02-2019 10:55:00 0.6 C 97 % 0.18 C
133 17-02-2019 11:00:00 0.7 C 97 % 0.28 C
134 17-02-2019 11:05:00 0.9 C 97 % 0.48 C
135 17-02-2019 11:10:00 1.1 C 97 % 0.68 C
136 17-02-2019 11:15:00 1.3 C 97 % 0.88 C
137 17-02-2019 11:20:00 1.6 C 97 % 1.18 C
138 17-02-2019 11:25:00 1.8 C 97 % 1.38 C
139 17-02-2019 11:30:00 2.1 C 97 % 1.67 C
140 17-02-2019 11:35:00 2.3 C 97 % 1.87 C
141 17-02-2019 11:40:00 2.5 C 97 % 2.07 C
142 17-02-2019 11:45:00 2.8 C 97 % 2.37 C
143 17-02-2019 11:50:00 2.9 C 97 % 2.47 C
144 17-02-2019 11:55:00 3.2 C 97 % 2.77 C
145 17-02-2019 12:00:00 3.3 C 97 % 2.87 C
146 17-02-2019 12:05:00 3.5 C 97 % 3.07 C
147 17-02-2019 12:10:00 3.7 C 97 % 3.27 C
148 17-02-2019 12:15:00 3.9 C 97 % 3.47 C
149 17-02-2019 12:20:00 4.2 C 97 % 3.77 C
150 17-02-2019 12:25:00 4.5 C 97 % 4.07 C
Sensor: Nr:Datum:Temp:Feuchte:Taupunkt:
Aussen-T/F 151 17-02-2019 12:30:00 4.8 C 98 % 4.51 C
152 17-02-2019 12:35:00 5.2 C 98 % 4.91 C
153 17-02-2019 12:40:00 5.6 C 98 % 5.31 C
154 17-02-2019 12:45:00 5.8 C 98 % 5.51 C
155 17-02-2019 12:50:00 6.1 C 98 % 5.81 C
156 17-02-2019 12:55:00 6.2 C 97 % 5.76 C
157 17-02-2019 13:00:00 6.3 C 98 % 6.01 C
158 17-02-2019 13:05:00 6.5 C 97 % 6.06 C
159 17-02-2019 13:10:00 6.7 C 97 % 6.26 C
160 17-02-2019 13:15:00 6.8 C 97 % 6.36 C
161 17-02-2019 13:20:00 7.1 C 97 % 6.66 C
162 17-02-2019 13:25:00 7.3 C 97 % 6.86 C
163 17-02-2019 13:30:00 7.6 C 97 % 7.16 C
164 17-02-2019 13:35:00 7.8 C 97 % 7.35 C
165 17-02-2019 13:40:00 8.1 C 97 % 7.65 C
166 17-02-2019 13:45:00 8.4 C 96 % 7.8 C
167 17-02-2019 13:50:00 8.7 C 95 % 7.94 C
168 17-02-2019 13:55:00 8.9 C 94 % 7.99 C
169 17-02-2019 14:00:00 9.1 C 92 % 7.87 C
170 17-02-2019 14:05:00 9.3 C 91 % 7.91 C
171 17-02-2019 14:10:00 9.5 C 89 % 7.78 C
172 17-02-2019 14:15:00 9.6 C 88 % 7.71 C
173 17-02-2019 14:20:00 9.7 C 87 % 7.64 C
174 17-02-2019 14:25:00 9.8 C 86 % 7.57 C
175 17-02-2019 14:30:00 9.9 C 85 % 7.5 C
Sensor: Nr:Datum:Temp:Feuchte:Taupunkt:
Aussen-T/F 176 17-02-2019 14:35:00 9.9 C 84 % 7.33 C
177 17-02-2019 14:40:00 10 C 84 % 7.43 C
178 17-02-2019 14:45:00 10.1 C 83 % 7.35 C
179 17-02-2019 14:50:00 10.1 C 83 % 7.35 C
180 17-02-2019 14:55:00 10.2 C 83 % 7.45 C
181 17-02-2019 15:00:00 10.2 C 82 % 7.27 C
182 17-02-2019 15:05:00 10.3 C 81 % 7.19 C
183 17-02-2019 15:10:00 10.5 C 79 % 7.02 C
184 17-02-2019 15:15:00 10.8 C 79 % 7.31 C
185 17-02-2019 15:20:00 11.1 C 79 % 7.6 C
186 17-02-2019 15:25:00 11.2 C 78 % 7.51 C
187 17-02-2019 15:30:00 11.3 C 78 % 7.61 C
188 17-02-2019 15:35:00 11.4 C 77 % 7.52 C
189 17-02-2019 15:40:00 11.6 C 75 % 7.33 C
190 17-02-2019 15:45:00 11.8 C 73 % 7.12 C
191 17-02-2019 15:50:00 12 C 73 % 7.32 C
192 17-02-2019 15:55:00 12.1 C 73 % 7.41 C
193 17-02-2019 16:00:00 12.2 C 71 % 7.1 C
194 17-02-2019 16:05:00 12.3 C 71 % 7.2 C
195 17-02-2019 16:10:00 12.3 C 71 % 7.2 C
196 17-02-2019 16:15:00 12.2 C 71 % 7.1 C
197 17-02-2019 16:20:00 12.1 C 71 % 7.01 C
198 17-02-2019 16:25:00 11.9 C 71 % 6.82 C
199 17-02-2019 16:30:00 11.8 C 71 % 6.72 C
200 17-02-2019 16:35:00 11.7 C 70 % 6.42 C
Sensor: Nr:Datum:Temp:Feuchte:Taupunkt:
Aussen-T/F 201 17-02-2019 16:40:00 11.7 C 72 % 6.83 C
202 17-02-2019 16:45:00 11.7 C 71 % 6.62 C
203 17-02-2019 16:50:00 11.7 C 72 % 6.83 C
204 17-02-2019 16:55:00 11.7 C 72 % 6.83 C
205 17-02-2019 17:00:00 11.6 C 71 % 6.53 C
206 17-02-2019 17:05:00 11.6 C 71 % 6.53 C
207 17-02-2019 17:10:00 11.4 C 71 % 6.34 C
208 17-02-2019 17:15:00 11.3 C 72 % 6.44 C
209 17-02-2019 17:20:00 11.2 C 72 % 6.35 C
210 17-02-2019 17:25:00 11.1 C 72 % 6.25 C
211 17-02-2019 17:30:00 11.1 C 73 % 6.45 C
212 17-02-2019 17:35:00 10.9 C 73 % 6.26 C
213 17-02-2019 17:40:00 10.8 C 73 % 6.16 C
214 17-02-2019 17:45:00 10.6 C 74 % 6.17 C
215 17-02-2019 17:50:00 10.3 C 74 % 5.88 C
216 17-02-2019 17:55:00 10.1 C 74 % 5.68 C
217 17-02-2019 18:00:00 9.8 C 75 % 5.59 C
218 17-02-2019 18:05:00 9.6 C 75 % 5.39 C
219 17-02-2019 18:10:00 9.3 C 75 % 5.1 C
220 17-02-2019 18:15:00 9 C 75 % 4.81 C
221 17-02-2019 18:20:00 8.8 C 76 % 4.81 C
222 17-02-2019 18:25:00 8.6 C 76 % 4.62 C
223 17-02-2019 18:30:00 8.4 C 76 % 4.42 C
224 17-02-2019 18:35:00 8.3 C 77 % 4.51 C
225 17-02-2019 18:40:00 8.1 C 77 % 4.32 C
Sensor: Nr:Datum:Temp:Feuchte:Taupunkt:
Aussen-T/F 226 17-02-2019 18:45:00 7.9 C 78 % 4.31 C
227 17-02-2019 18:50:00 7.7 C 78 % 4.11 C
228 17-02-2019 18:55:00 7.6 C 78 % 4.02 C
229 17-02-2019 19:00:00 7.4 C 78 % 3.82 C
230 17-02-2019 19:05:00 7.3 C 79 % 3.91 C
231 17-02-2019 19:10:00 7.3 C 80 % 4.09 C
232 17-02-2019 19:15:00 7.2 C 80 % 3.99 C
233 17-02-2019 19:20:00 7.1 C 80 % 3.89 C
234 17-02-2019 19:25:00 6.8 C 79 % 3.42 C
235 17-02-2019 19:30:00 6.6 C 81 % 3.58 C
236 17-02-2019 19:35:00 6.3 C 81 % 3.29 C
237 17-02-2019 19:40:00 6.3 C 81 % 3.29 C
238 17-02-2019 19:45:00 6.2 C 81 % 3.19 C
239 17-02-2019 19:50:00 6.2 C 81 % 3.19 C
240 17-02-2019 19:55:00 6.1 C 81 % 3.09 C
241 17-02-2019 20:00:00 6 C 82 % 3.17 C
242 17-02-2019 20:05:00 5.5 C 81 % 2.51 C
243 17-02-2019 20:10:00 5.2 C 83 % 2.56 C
244 17-02-2019 20:15:00 5.1 C 84 % 2.63 C
245 17-02-2019 20:20:00 4.9 C 84 % 2.43 C
246 17-02-2019 20:25:00 4.7 C 84 % 2.23 C
247 17-02-2019 20:30:00 4.4 C 85 % 2.11 C
248 17-02-2019 20:35:00 4.3 C 86 % 2.17 C
249 17-02-2019 20:40:00 4.2 C 87 % 2.23 C
250 17-02-2019 20:45:00 4.2 C 86 % 2.07 C
Sensor: Nr:Datum:Temp:Feuchte:Taupunkt:
Aussen-T/F 251 17-02-2019 20:50:00 4 C 86 % 1.88 C
252 17-02-2019 20:55:00 3.8 C 87 % 1.84 C
253 17-02-2019 21:00:00 3.6 C 87 % 1.64 C
254 17-02-2019 21:05:00 3.6 C 88 % 1.8 C
255 17-02-2019 21:10:00 3.8 C 89 % 2.16 C
256 17-02-2019 21:15:00 4.1 C 88 % 2.3 C
257 17-02-2019 21:20:00 4.2 C 87 % 2.23 C
258 17-02-2019 21:25:00 4.1 C 86 % 1.97 C
259 17-02-2019 21:30:00 3.8 C 86 % 1.68 C
260 17-02-2019 21:35:00 3.6 C 87 % 1.64 C
261 17-02-2019 21:40:00 3.5 C 88 % 1.7 C
262 17-02-2019 21:45:00 3.3 C 87 % 1.35 C
263 17-02-2019 21:50:00 3.2 C 88 % 1.41 C
264 17-02-2019 21:55:00 3 C 88 % 1.21 C
265 17-02-2019 22:00:00 2.8 C 88 % 1.02 C
266 17-02-2019 22:05:00 2.8 C 89 % 1.17 C
267 17-02-2019 22:10:00 2.7 C 89 % 1.07 C
268 17-02-2019 22:15:00 2.5 C 89 % 0.88 C
269 17-02-2019 22:20:00 2.5 C 90 % 1.03 C
270 17-02-2019 22:25:00 2.5 C 90 % 1.03 C
271 17-02-2019 22:30:00 2.4 C 90 % 0.93 C
272 17-02-2019 22:35:00 2.4 C 90 % 0.93 C
273 17-02-2019 22:40:00 2.2 C 89 % 0.58 C
274 17-02-2019 22:45:00 2 C 90 % 0.54 C
275 17-02-2019 22:50:00 1.9 C 91 % 0.59 C
Sensor: Nr:Datum:Temp:Feuchte:Taupunkt:
Aussen-T/F 276 17-02-2019 22:55:00 1.8 C 90 % 0.34 C
277 17-02-2019 23:00:00 1.8 C 91 % 0.49 C
278 17-02-2019 23:05:00 1.7 C 91 % 0.39 C
279 17-02-2019 23:10:00 1.7 C 91 % 0.39 C
280 17-02-2019 23:15:00 1.6 C 91 % 0.29 C
281 17-02-2019 23:20:00 1.7 C 92 % 0.54 C
282 17-02-2019 23:25:00 1.7 C 92 % 0.54 C
283 17-02-2019 23:30:00 1.8 C 92 % 0.64 C
284 17-02-2019 23:35:00 1.7 C 92 % 0.54 C
285 17-02-2019 23:40:00 1.7 C 92 % 0.54 C
286 17-02-2019 23:45:00 1.6 C 92 % 0.44 C
287 17-02-2019 23:50:00 1.6 C 92 % 0.44 C
288 17-02-2019 23:55:00 1.8 C 92 % 0.64 C
289 18-02-2019 00:00:00 1.7 C 92 % 0.54 C
290 18-02-2019 00:05:00 1.7 C 92 % 0.54 C
291 18-02-2019 00:10:00 1.8 C 92 % 0.64 C
292 18-02-2019 00:15:00 1.9 C 92 % 0.74 C
293 18-02-2019 00:20:00 1.7 C 91 % 0.39 C
294 18-02-2019 00:25:00 1.5 C 91 % 0.19 C
295 18-02-2019 00:30:00 1.4 C 91 % 0.1 C
296 18-02-2019 00:35:00 1.2 C 91 % -0.1 C
297 18-02-2019 00:40:00 1.3 C 92 % 0.15 C
298 18-02-2019 00:45:00 1.2 C 92 % 0.05 C
299 18-02-2019 00:50:00 1.1 C 92 % -0.05 C
300 18-02-2019 00:55:00 1.1 C 92 % -0.05 C
Sensor: Nr:Datum:Temp:Feuchte:Taupunkt:
Aussen-T/F 301 18-02-2019 01:00:00 0.9 C 92 % -0.25 C
302 18-02-2019 01:05:00 0.9 C 92 % -0.25 C
303 18-02-2019 01:10:00 0.9 C 93 % -0.1 C
304 18-02-2019 01:15:00 0.7 C 92 % -0.45 C
305 18-02-2019 01:20:00 0.5 C 92 % -0.65 C
306 18-02-2019 01:25:00 0.4 C 92 % -0.74 C
307 18-02-2019 01:30:00 0.4 C 93 % -0.6 C
308 18-02-2019 01:35:00 0.3 C 93 % -0.7 C
309 18-02-2019 01:40:00 0.3 C 93 % -0.7 C
310 18-02-2019 01:45:00 0.3 C 93 % -0.7 C
311 18-02-2019 01:50:00 0.2 C 93 % -0.79 C
312 18-02-2019 01:55:00 0.1 C 93 % -0.89 C
313 18-02-2019 02:00:00 0.1 C 93 % -0.89 C
314 18-02-2019 02:05:00 0 C 93 % -0.99 C
315 18-02-2019 02:10:00 0 C 93 % -0.99 C
316 18-02-2019 02:15:00 0.1 C 94 % -0.75 C
317 18-02-2019 02:20:00 0.1 C 94 % -0.75 C
318 18-02-2019 02:25:00 0.1 C 94 % -0.75 C
319 18-02-2019 02:30:00 0.1 C 94 % -0.75 C
320 18-02-2019 02:35:00 0.2 C 94 % -0.65 C
321 18-02-2019 02:40:00 0.2 C 94 % -0.65 C
322 18-02-2019 02:45:00 0.2 C 94 % -0.65 C
323 18-02-2019 02:50:00 0.1 C 94 % -0.75 C
324 18-02-2019 02:55:00 -0.2 C 94 % -1.05 C
325 18-02-2019 03:00:00 -0.3 C 94 % -1.15 C
Sensor: Nr:Datum:Temp:Feuchte:Taupunkt:
Aussen-T/F 326 18-02-2019 03:05:00 -0.3 C 94 % -1.15 C
327 18-02-2019 03:10:00 -0.3 C 94 % -1.15 C
328 18-02-2019 03:15:00 -0.3 C 94 % -1.15 C
329 18-02-2019 03:20:00 -0.4 C 94 % -1.25 C
330 18-02-2019 03:25:00 -0.4 C 94 % -1.25 C
331 18-02-2019 03:30:00 -0.4 C 94 % -1.25 C
332 18-02-2019 03:35:00 -0.4 C 94 % -1.25 C
333 18-02-2019 03:40:00 -0.4 C 95 % -1.1 C
334 18-02-2019 03:45:00 -0.5 C 94 % -1.34 C
335 18-02-2019 03:50:00 -0.6 C 94 % -1.44 C
336 18-02-2019 03:55:00 -0.7 C 94 % -1.54 C
337 18-02-2019 04:00:00 -0.7 C 94 % -1.54 C
338 18-02-2019 04:05:00 -0.8 C 94 % -1.64 C
339 18-02-2019 04:10:00 -0.8 C 94 % -1.64 C
340 18-02-2019 04:15:00 -0.8 C 94 % -1.64 C
341 18-02-2019 04:20:00 -0.9 C 94 % -1.74 C
342 18-02-2019 04:25:00 -0.8 C 95 % -1.5 C
343 18-02-2019 04:30:00 -0.7 C 95 % -1.4 C
344 18-02-2019 04:35:00 -0.7 C 95 % -1.4 C
345 18-02-2019 04:40:00 -0.7 C 95 % -1.4 C
346 18-02-2019 04:45:00 -0.7 C 95 % -1.4 C
347 18-02-2019 04:50:00 -0.8 C 95 % -1.5 C
348 18-02-2019 04:55:00 -0.9 C 95 % -1.6 C
349 18-02-2019 05:00:00 -1 C 95 % -1.7 C
350 18-02-2019 05:05:00 -1.1 C 95 % -1.8 C
Sensor: Nr:Datum:Temp:Feuchte:Taupunkt:
Aussen-T/F 351 18-02-2019 05:10:00 -1.1 C 95 % -1.8 C
352 18-02-2019 05:15:00 -1.2 C 95 % -1.9 C
353 18-02-2019 05:20:00 -1.2 C 95 % -1.9 C
354 18-02-2019 05:25:00 -1.3 C 95 % -2 C
355 18-02-2019 05:30:00 -1.2 C 95 % -1.9 C
356 18-02-2019 05:35:00 -1.2 C 95 % -1.9 C
357 18-02-2019 05:40:00 -1.2 C 95 % -1.9 C
358 18-02-2019 05:45:00 -1.3 C 95 % -2 C
359 18-02-2019 05:50:00 -1.3 C 95 % -2 C
360 18-02-2019 05:55:00 -1.5 C 95 % -2.19 C
361 18-02-2019 06:00:00 -1.5 C 95 % -2.19 C
362 18-02-2019 06:05:00 -1.4 C 95 % -2.1 C
363 18-02-2019 06:10:00 -1.4 C 95 % -2.1 C
364 18-02-2019 06:15:00 -1.4 C 95 % -2.1 C
365 18-02-2019 06:20:00 -1.6 C 95 % -2.29 C
366 18-02-2019 06:25:00 -1.4 C 95 % -2.1 C
367 18-02-2019 06:30:00 -1.4 C 95 % -2.1 C
368 18-02-2019 06:35:00 -1.4 C 95 % -2.1 C
369 18-02-2019 06:40:00 -1.6 C 95 % -2.29 C
370 18-02-2019 06:45:00 -1.7 C 95 % -2.39 C
371 18-02-2019 06:50:00 -1.6 C 95 % -2.29 C
372 18-02-2019 06:55:00 -1.3 C 95 % -2 C
373 18-02-2019 07:00:00 -1.3 C 96 % -1.85 C
374 18-02-2019 07:05:00 -1.3 C 95 % -2 C
375 18-02-2019 07:10:00 -1.5 C 95 % -2.19 C
Sensor: Nr:Datum:Temp:Feuchte:Taupunkt:
Aussen-T/F 376 18-02-2019 07:15:00 -1.7 C 95 % -2.39 C
377 18-02-2019 07:20:00 -1.7 C 95 % -2.39 C
378 18-02-2019 07:25:00 -1.6 C 95 % -2.29 C
379 18-02-2019 07:30:00 -1.6 C 95 % -2.29 C
380 18-02-2019 07:35:00 -1.7 C 95 % -2.39 C
381 18-02-2019 07:40:00 -1.8 C 95 % -2.49 C
382 18-02-2019 07:45:00 -1.8 C 95 % -2.49 C
383 18-02-2019 07:50:00 -1.9 C 95 % -2.59 C
384 18-02-2019 07:55:00 -1.9 C 95 % -2.59 C
385 18-02-2019 08:00:00 -1.9 C 95 % -2.59 C
386 18-02-2019 08:05:00 -1.9 C 95 % -2.59 C
387 18-02-2019 08:10:00 -1.9 C 95 % -2.59 C
388 18-02-2019 08:15:00 -1.9 C 95 % -2.59 C
389 18-02-2019 08:20:00 -1.9 C 95 % -2.59 C
390 18-02-2019 08:25:00 -1.8 C 95 % -2.49 C
391 18-02-2019 08:30:00 -1.8 C 95 % -2.49 C
392 18-02-2019 08:35:00 -1.7 C 96 % -2.25 C
393 18-02-2019 08:40:00 -1.4 C 96 % -1.95 C
394 18-02-2019 08:45:00 -1.2 C 96 % -1.75 C
395 18-02-2019 08:50:00 -1.1 C 96 % -1.66 C
396 18-02-2019 08:55:00 -1.1 C 96 % -1.66 C
397 18-02-2019 09:00:00 -0.9 C 96 % -1.46 C
398 18-02-2019 09:05:00 -0.6 C 96 % -1.16 C
399 18-02-2019 09:10:00 -0.5 C 96 % -1.06 C
400 18-02-2019 09:15:00 -0.6 C 96 % -1.16 C
Sensor: Nr:Datum:Temp:Feuchte:Taupunkt:
Aussen-T/F 401 18-02-2019 09:20:00 -0.6 C 96 % -1.16 C
402 18-02-2019 09:25:00 -0.5 C 96 % -1.06 C
403 18-02-2019 09:30:00 -0.4 C 96 % -0.96 C
404 18-02-2019 09:35:00 -0.4 C 96 % -0.96 C
405 18-02-2019 09:40:00 -0.5 C 96 % -1.06 C
406 18-02-2019 09:45:00 -0.6 C 96 % -1.16 C
407 18-02-2019 09:50:00 -0.6 C 96 % -1.16 C
408 18-02-2019 09:55:00 -0.6 C 96 % -1.16 C
409 18-02-2019 10:00:00 -0.5 C 96 % -1.06 C
410 18-02-2019 10:05:00 -0.5 C 96 % -1.06 C
411 18-02-2019 10:10:00 -0.4 C 96 % -0.96 C
412 18-02-2019 10:15:00 -0.3 C 96 % -0.86 C
413 18-02-2019 10:20:00 -0.1 C 96 % -0.66 C
414 18-02-2019 10:25:00 0.1 C 96 % -0.46 C
415 18-02-2019 10:30:00 0.2 C 96 % -0.36 C
416 18-02-2019 10:35:00 0.3 C 96 % -0.26 C
417 18-02-2019 10:40:00 0.5 C 96 % -0.06 C
418 18-02-2019 10:45:00 0.7 C 96 % 0.14 C
419 18-02-2019 10:50:00 1 C 97 % 0.58 C
420 18-02-2019 10:55:00 1.3 C 97 % 0.88 C
421 18-02-2019 11:00:00 1.6 C 97 % 1.18 C
422 18-02-2019 11:05:00 1.7 C 97 % 1.28 C
423 18-02-2019 11:10:00 1.9 C 97 % 1.48 C
424 18-02-2019 11:15:00 2.2 C 97 % 1.77 C
425 18-02-2019 11:20:00 2.4 C 97 % 1.97 C
Sensor: Nr:Datum:Temp:Feuchte:Taupunkt:
Aussen-T/F 426 18-02-2019 11:25:00 2.7 C 97 % 2.27 C
427 18-02-2019 11:30:00 3 C 97 % 2.57 C
428 18-02-2019 11:35:00 3.3 C 97 % 2.87 C
429 18-02-2019 11:40:00 3.6 C 97 % 3.17 C
430 18-02-2019 11:45:00 3.7 C 96 % 3.12 C
431 18-02-2019 11:50:00 3.9 C 96 % 3.32 C
432 18-02-2019 11:55:00 4.1 C 95 % 3.37 C
433 18-02-2019 12:00:00 4.2 C 95 % 3.47 C
434 18-02-2019 12:05:00 4.4 C 95 % 3.67 C
435 18-02-2019 12:10:00 4.7 C 95 % 3.97 C
436 18-02-2019 12:15:00 4.9 C 95 % 4.17 C
437 18-02-2019 12:20:00 5.3 C 95 % 4.57 C
438 18-02-2019 12:25:00 5.6 C 95 % 4.86 C
439 18-02-2019 12:30:00 6.1 C 95 % 5.36 C
440 18-02-2019 12:35:00 6.6 C 93 % 5.55 C
441 18-02-2019 12:40:00 7.1 C 92 % 5.89 C
442 18-02-2019 12:45:00 7.5 C 90 % 5.97 C
443 18-02-2019 12:50:00 7.9 C 88 % 6.04 C
444 18-02-2019 12:55:00 8.2 C 87 % 6.17 C
445 18-02-2019 13:00:00 8.3 C 86 % 6.1 C
446 18-02-2019 13:05:00 8.4 C 85 % 6.03 C
447 18-02-2019 13:10:00 8.6 C 84 % 6.05 C
448 18-02-2019 13:15:00 8.8 C 83 % 6.08 C
449 18-02-2019 13:20:00 9 C 83 % 6.27 C
450 18-02-2019 13:25:00 9.3 C 81 % 6.21 C
Sensor: Nr:Datum:Temp:Feuchte:Taupunkt:
Aussen-T/F 451 18-02-2019 13:30:00 9.7 C 81 % 6.6 C
452 18-02-2019 13:35:00 10 C 79 % 6.53 C
453 18-02-2019 13:40:00 10.3 C 78 % 6.64 C
454 18-02-2019 13:45:00 10.6 C 76 % 6.55 C
455 18-02-2019 13:50:00 10.9 C 75 % 6.65 C
456 18-02-2019 13:55:00 11.2 C 74 % 6.74 C
457 18-02-2019 14:00:00 11.5 C 73 % 6.84 C
458 18-02-2019 14:05:00 11.6 C 71 % 6.53 C
459 18-02-2019 14:10:00 11.7 C 71 % 6.62 C
460 18-02-2019 14:15:00 11.7 C 71 % 6.62 C
461 18-02-2019 14:20:00 11.6 C 71 % 6.53 C
462 18-02-2019 14:25:00 11.5 C 71 % 6.43 C
463 18-02-2019 14:30:00 11.3 C 72 % 6.44 C
464 18-02-2019 14:35:00 11.2 C 72 % 6.35 C
465 18-02-2019 14:40:00 11 C 73 % 6.35 C
466 18-02-2019 14:45:00 10.9 C 73 % 6.26 C
467 18-02-2019 14:50:00 11 C 73 % 6.35 C
468 18-02-2019 14:55:00 11.1 C 73 % 6.45 C
469 18-02-2019 15:00:00 11.1 C 73 % 6.45 C
470 18-02-2019 15:05:00 11.2 C 72 % 6.35 C
471 18-02-2019 15:10:00 11.4 C 71 % 6.34 C
472 18-02-2019 15:15:00 11.6 C 71 % 6.53 C
473 18-02-2019 15:20:00 11.7 C 69 % 6.21 C
474 18-02-2019 15:25:00 11.9 C 67 % 5.98 C
475 18-02-2019 15:30:00 12.2 C 65 % 5.82 C
Sensor: Nr:Datum:Temp:Feuchte:Taupunkt:
Aussen-T/F 476 18-02-2019 15:35:00 12.4 C 65 % 6.01 C
477 18-02-2019 15:40:00 12.6 C 66 % 6.42 C
478 18-02-2019 15:45:00 12.7 C 60 % 5.14 C
479 18-02-2019 15:50:00 12.9 C 62 % 5.8 C
480 18-02-2019 15:55:00 13 C 62 % 5.9 C
481 18-02-2019 16:00:00 12.9 C 62 % 5.8 C
482 18-02-2019 16:05:00 12.8 C 62 % 5.71 C
483 18-02-2019 16:10:00 12.6 C 61 % 5.29 C
484 18-02-2019 16:15:00 12.4 C 63 % 5.56 C
485 18-02-2019 16:20:00 12.2 C 62 % 5.14 C
486 18-02-2019 16:25:00 11.9 C 63 % 5.09 C
487 18-02-2019 16:30:00 11.7 C 65 % 5.35 C
488 18-02-2019 16:35:00 11.5 C 66 % 5.38 C
489 18-02-2019 16:40:00 11.3 C 67 % 5.4 C
490 18-02-2019 16:45:00 11.1 C 68 % 5.43 C
491 18-02-2019 16:50:00 10.9 C 68 % 5.23 C
492 18-02-2019 16:55:00 10.8 C 68 % 5.14 C
493 18-02-2019 17:00:00 10.8 C 68 % 5.14 C
494 18-02-2019 17:05:00 10.8 C 68 % 5.14 C
495 18-02-2019 17:10:00 10.8 C 69 % 5.35 C
496 18-02-2019 17:15:00 10.9 C 68 % 5.23 C
497 18-02-2019 17:20:00 10.9 C 68 % 5.23 C
498 18-02-2019 17:25:00 10.8 C 69 % 5.35 C
499 18-02-2019 17:30:00 10.6 C 70 % 5.36 C
500 18-02-2019 17:35:00 10.3 C 70 % 5.08 C
Sensor: Nr:Datum:Temp:Feuchte:Taupunkt:
Aussen-T/F 501 18-02-2019 17:40:00 10.1 C 70 % 4.89 C
502 18-02-2019 17:45:00 9.9 C 71 % 4.9 C
503 18-02-2019 17:50:00 9.7 C 72 % 4.9 C
504 18-02-2019 17:55:00 9.5 C 72 % 4.71 C
505 18-02-2019 18:00:00 9.3 C 73 % 4.72 C
506 18-02-2019 18:05:00 9.1 C 73 % 4.52 C
507 18-02-2019 18:10:00 8.9 C 73 % 4.33 C
508 18-02-2019 18:15:00 8.7 C 74 % 4.33 C
509 18-02-2019 18:20:00 8.5 C 74 % 4.14 C
510 18-02-2019 18:25:00 8.3 C 75 % 4.14 C
511 18-02-2019 18:30:00 8.3 C 76 % 4.33 C
512 18-02-2019 18:35:00 8.2 C 76 % 4.23 C
513 18-02-2019 18:40:00 8.1 C 76 % 4.13 C
514 18-02-2019 18:45:00 8 C 76 % 4.04 C
515 18-02-2019 18:50:00 7.9 C 76 % 3.94 C
516 18-02-2019 18:55:00 7.7 C 75 % 3.56 C
517 18-02-2019 19:00:00 7.5 C 76 % 3.55 C
518 18-02-2019 19:05:00 7.3 C 78 % 3.73 C
519 18-02-2019 19:10:00 7.2 C 79 % 3.81 C
520 18-02-2019 19:15:00 7.1 C 79 % 3.71 C
521 18-02-2019 19:20:00 6.9 C 80 % 3.7 C
522 18-02-2019 19:25:00 6.8 C 81 % 3.77 C
523 18-02-2019 19:30:00 6.8 C 81 % 3.77 C
524 18-02-2019 19:35:00 6.8 C 82 % 3.95 C
525 18-02-2019 19:40:00 6.9 C 81 % 3.87 C
Sensor: Nr:Datum:Temp:Feuchte:Taupunkt:
Aussen-T/F 526 18-02-2019 19:45:00 6.9 C 81 % 3.87 C
527 18-02-2019 19:50:00 6.9 C 81 % 3.87 C
528 18-02-2019 19:55:00 6.9 C 81 % 3.87 C
529 18-02-2019 20:00:00 6.8 C 80 % 3.6 C
530 18-02-2019 20:05:00 6.7 C 79 % 3.32 C
531 18-02-2019 20:10:00 6.6 C 79 % 3.23 C
532 18-02-2019 20:15:00 6.4 C 78 % 2.85 C
533 18-02-2019 20:20:00 6.1 C 79 % 2.74 C
534 18-02-2019 20:25:00 5.8 C 81 % 2.8 C
535 18-02-2019 20:30:00 5.5 C 81 % 2.51 C
536 18-02-2019 20:35:00 5.2 C 82 % 2.39 C
537 18-02-2019 20:40:00 4.9 C 82 % 2.09 C
538 18-02-2019 20:45:00 4.7 C 84 % 2.23 C
539 18-02-2019 20:50:00 4.6 C 85 % 2.3 C
540 18-02-2019 20:55:00 4.6 C 86 % 2.47 C
541 18-02-2019 21:00:00 4.6 C 86 % 2.47 C
542 18-02-2019 21:05:00 4.6 C 86 % 2.47 C
543 18-02-2019 21:10:00 4.4 C 86 % 2.27 C
544 18-02-2019 21:15:00 4.3 C 86 % 2.17 C
545 18-02-2019 21:20:00 4.3 C 86 % 2.17 C
546 18-02-2019 21:25:00 4.2 C 86 % 2.07 C
547 18-02-2019 21:30:00 4.2 C 86 % 2.07 C
548 18-02-2019 21:35:00 4 C 86 % 1.88 C
549 18-02-2019 21:40:00 3.9 C 86 % 1.78 C
550 18-02-2019 21:45:00 3.8 C 86 % 1.68 C
Sensor: Nr:Datum:Temp:Feuchte:Taupunkt:
Aussen-T/F 551 18-02-2019 21:50:00 3.6 C 86 % 1.48 C
552 18-02-2019 21:55:00 3.3 C 86 % 1.19 C
553 18-02-2019 22:00:00 3.2 C 87 % 1.25 C
554 18-02-2019 22:05:00 3 C 87 % 1.05 C
555 18-02-2019 22:10:00 3 C 88 % 1.21 C
556 18-02-2019 22:15:00 2.9 C 89 % 1.27 C
557 18-02-2019 22:20:00 2.9 C 89 % 1.27 C
558 18-02-2019 22:25:00 2.8 C 89 % 1.17 C
559 18-02-2019 22:30:00 2.7 C 89 % 1.07 C
560 18-02-2019 22:35:00 2.7 C 89 % 1.07 C
561 18-02-2019 22:40:00 2.7 C 89 % 1.07 C
562 18-02-2019 22:45:00 2.5 C 89 % 0.88 C
563 18-02-2019 22:50:00 2.4 C 90 % 0.93 C
564 18-02-2019 22:55:00 2.4 C 90 % 0.93 C
565 18-02-2019 23:00:00 2.3 C 90 % 0.83 C
566 18-02-2019 23:05:00 2.3 C 90 % 0.83 C
567 18-02-2019 23:10:00 2.2 C 91 % 0.89 C
568 18-02-2019 23:15:00 2.3 C 91 % 0.99 C
569 18-02-2019 23:20:00 2.3 C 91 % 0.99 C
570 18-02-2019 23:25:00 2.3 C 91 % 0.99 C
571 18-02-2019 23:30:00 2.2 C 91 % 0.89 C
572 18-02-2019 23:35:00 2.1 C 91 % 0.79 C
573 18-02-2019 23:40:00 2 C 91 % 0.69 C
574 18-02-2019 23:45:00 1.9 C 91 % 0.59 C
575 18-02-2019 23:50:00 1.9 C 91 % 0.59 C
Sensor: Nr:Datum:Temp:Feuchte:Taupunkt:
Aussen-T/F 576 18-02-2019 23:55:00 1.8 C 91 % 0.49 C

Legende:
   Min
   Max


Maximal/Minimal-Werte vom 17.02.2019 - 18.02.2019

Sensor Min Max Avg
Temp
(Aussen-T/F)
-1.9 °C
18-02-2019  07:50:00
13 °C
18-02-2019  15:55:00
3.58 °C
Feuchte
(Aussen-T/F)
60 %
18-02-2019  15:45:00
98 %
17-02-2019  12:30:00
88.38 %
Taupunkt
(Aussen-T/F)
-2.59 C
18-02-2019  07:50:00
7.99 C
17-02-2019  13:55:00
1.7 C

Die Daten stammen von einer Davis Vantage Pro 2 Wetter-Station und werden unter Linux mit der Software wview2wettercgi und aufbereitet. Alle Angaben erfolgen ohne Gewähr für ihre Vollständigkeit oder Richtigkeit.
Kontakt: Rainer Krienke krienke@uni-koblenz.de . Meine Webseiten an der Uni Koblenz oder privat.
Version: $Revision: 0.78 $